sensor_id;sensor_type;location;lat;lon;timestamp;temperature;humidity
7000;DHT22;3540;53.242;10.408;2023-01-19T00:01:55;0.40;99.90
7000;DHT22;3540;53.242;10.408;2023-01-19T00:04:20;0.50;99.90
7000;DHT22;3540;53.242;10.408;2023-01-19T00:06:46;0.50;99.90
7000;DHT22;3540;53.242;10.408;2023-01-19T00:09:11;0.50;99.90
7000;DHT22;3540;53.242;10.408;2023-01-19T00:11:37;0.60;99.90
7000;DHT22;3540;53.242;10.408;2023-01-19T00:14:03;0.60;99.90
7000;DHT22;3540;53.242;10.408;2023-01-19T00:16:29;0.60;99.90
7000;DHT22;3540;53.242;10.408;2023-01-19T00:18:55;0.60;99.90
7000;DHT22;3540;53.242;10.408;2023-01-19T00:21:20;0.60;99.90
7000;DHT22;3540;53.242;10.408;2023-01-19T00:23:46;0.60;99.90
7000;DHT22;3540;53.242;10.408;2023-01-19T00:26:14;0.60;99.90
7000;DHT22;3540;53.242;10.408;2023-01-19T00:28:41;0.60;99.90
7000;DHT22;3540;53.242;10.408;2023-01-19T00:31:07;0.60;99.90
7000;DHT22;3540;53.242;10.408;2023-01-19T00:33:33;0.60;99.90
7000;DHT22;3540;53.242;10.408;2023-01-19T00:35:58;0.60;99.90
7000;DHT22;3540;53.242;10.408;2023-01-19T00:38:24;0.70;99.90
7000;DHT22;3540;53.242;10.408;2023-01-19T00:40:49;0.70;99.90
7000;DHT22;3540;53.242;10.408;2023-01-19T00:43:15;0.70;99.90
7000;DHT22;3540;53.242;10.408;2023-01-19T00:45:41;0.60;99.90
7000;DHT22;3540;53.242;10.408;2023-01-19T00:48:06;0.70;99.90
7000;DHT22;3540;53.242;10.408;2023-01-19T00:50:32;0.70;99.90
7000;DHT22;3540;53.242;10.408;2023-01-19T00:52:59;0.80;99.90
7000;DHT22;3540;53.242;10.408;2023-01-19T00:55:26;0.70;99.90
7000;DHT22;3540;53.242;10.408;2023-01-19T00:57:53;0.80;99.90
7000;DHT22;3540;53.242;10.408;2023-01-19T01:00:19;0.80;99.90
7000;DHT22;3540;53.242;10.408;2023-01-19T01:02:46;0.80;99.90
7000;DHT22;3540;53.242;10.408;2023-01-19T01:05:12;0.90;99.90
7000;DHT22;3540;53.242;10.408;2023-01-19T01:07:39;0.90;99.90
7000;DHT22;3540;53.242;10.408;2023-01-19T01:10:22;0.90;99.90
7000;DHT22;3540;53.242;10.408;2023-01-19T01:12:49;0.90;99.90
7000;DHT22;3540;53.242;10.408;2023-01-19T01:15:15;0.90;99.90
7000;DHT22;3540;53.242;10.408;2023-01-19T01:17:42;0.90;99.90
7000;DHT22;3540;53.242;10.408;2023-01-19T01:20:32;0.90;99.90
7000;DHT22;3540;53.242;10.408;2023-01-19T01:22:59;0.90;99.90
7000;DHT22;3540;53.242;10.408;2023-01-19T01:25:26;0.90;99.90
7000;DHT22;3540;53.242;10.408;2023-01-19T01:27:52;0.90;99.90
7000;DHT22;3540;53.242;10.408;2023-01-19T01:30:19;1.00;99.90
7000;DHT22;3540;53.242;10.408;2023-01-19T01:32:45;1.00;99.90
7000;DHT22;3540;53.242;10.408;2023-01-19T01:35:12;1.00;99.90
7000;DHT22;3540;53.242;10.408;2023-01-19T01:37:38;1.10;99.90
7000;DHT22;3540;53.242;10.408;2023-01-19T01:40:05;1.10;99.90
7000;DHT22;3540;53.242;10.408;2023-01-19T01:42:32;1.10;99.90
7000;DHT22;3540;53.242;10.408;2023-01-19T01:45:00;1.10;99.90
7000;DHT22;3540;53.242;10.408;2023-01-19T01:50:13;1.10;99.90
7000;DHT22;3540;53.242;10.408;2023-01-19T01:52:51;1.10;99.90
7000;DHT22;3540;53.242;10.408;2023-01-19T01:55:20;1.10;99.90
7000;DHT22;3540;53.242;10.408;2023-01-19T01:57:50;1.20;99.90
7000;DHT22;3540;53.242;10.408;2023-01-19T02:00:16;1.20;99.90
7000;DHT22;3540;53.242;10.408;2023-01-19T02:02:42;1.20;99.90
7000;DHT22;3540;53.242;10.408;2023-01-19T02:05:18;1.20;99.90
7000;DHT22;3540;53.242;10.408;2023-01-19T02:10:42;1.20;99.90
7000;DHT22;3540;53.242;10.408;2023-01-19T02:13:29;1.20;99.90
7000;DHT22;3540;53.242;10.408;2023-01-19T02:15:57;1.20;99.90
7000;DHT22;3540;53.242;10.408;2023-01-19T02:18:26;1.20;99.90
7000;DHT22;3540;53.242;10.408;2023-01-19T02:23:46;1.10;99.90
7000;DHT22;3540;53.242;10.408;2023-01-19T02:26:30;1.10;99.90
7000;DHT22;3540;53.242;10.408;2023-01-19T02:29:05;1.10;99.90
7000;DHT22;3540;53.242;10.408;2023-01-19T02:31:33;1.10;99.90
7000;DHT22;3540;53.242;10.408;2023-01-19T02:34:00;1.00;99.90
7000;DHT22;3540;53.242;10.408;2023-01-19T02:36:56;1.00;99.90
7000;DHT22;3540;53.242;10.408;2023-01-19T02:39:48;1.00;99.90
7000;DHT22;3540;53.242;10.408;2023-01-19T02:42:28;0.90;99.90
7000;DHT22;3540;53.242;10.408;2023-01-19T02:44:56;0.90;99.90
7000;DHT22;3540;53.242;10.408;2023-01-19T02:47:22;0.90;99.90
7000;DHT22;3540;53.242;10.408;2023-01-19T02:49:58;0.90;99.90
7000;DHT22;3540;53.242;10.408;2023-01-19T02:52:27;0.90;99.90
7000;DHT22;3540;53.242;10.408;2023-01-19T03:18:09;1.10;99.90
7000;DHT22;3540;53.242;10.408;2023-01-19T03:20:36;1.10;99.90
7000;DHT22;3540;53.242;10.408;2023-01-19T03:23:07;1.10;99.90
7000;DHT22;3540;53.242;10.408;2023-01-19T03:25:35;1.10;99.90
7000;DHT22;3540;53.242;10.408;2023-01-19T03:28:03;1.10;99.90
7000;DHT22;3540;53.242;10.408;2023-01-19T03:30:34;1.20;99.90
7000;DHT22;3540;53.242;10.408;2023-01-19T03:33:09;1.10;99.90
7000;DHT22;3540;53.242;10.408;2023-01-19T03:35:38;1.20;99.90
7000;DHT22;3540;53.242;10.408;2023-01-19T03:38:11;1.10;99.90
7000;DHT22;3540;53.242;10.408;2023-01-19T03:40:40;1.10;99.90
7000;DHT22;3540;53.242;10.408;2023-01-19T03:43:07;1.20;99.90
7000;DHT22;3540;53.242;10.408;2023-01-19T03:45:35;1.20;99.90
7000;DHT22;3540;53.242;10.408;2023-01-19T03:48:02;1.20;99.90
7000;DHT22;3540;53.242;10.408;2023-01-19T03:50:29;1.20;99.90
7000;DHT22;3540;53.242;10.408;2023-01-19T03:53:10;1.20;99.90
7000;DHT22;3540;53.242;10.408;2023-01-19T03:55:37;1.20;99.90
7000;DHT22;3540;53.242;10.408;2023-01-19T03:58:04;1.20;99.90
7000;DHT22;3540;53.242;10.408;2023-01-19T04:00:30;1.20;99.90
7000;DHT22;3540;53.242;10.408;2023-01-19T04:02:55;1.20;99.90
7000;DHT22;3540;53.242;10.408;2023-01-19T04:05:21;1.20;99.90
7000;DHT22;3540;53.242;10.408;2023-01-19T04:07:51;1.20;99.90
7000;DHT22;3540;53.242;10.408;2023-01-19T04:10:17;1.20;99.90
7000;DHT22;3540;53.242;10.408;2023-01-19T04:12:43;1.20;99.90
7000;DHT22;3540;53.242;10.408;2023-01-19T04:15:09;1.20;99.90
7000;DHT22;3540;53.242;10.408;2023-01-19T04:17:35;1.20;99.90
7000;DHT22;3540;53.242;10.408;2023-01-19T04:20:00;1.20;99.90
7000;DHT22;3540;53.242;10.408;2023-01-19T04:22:26;1.20;99.90
7000;DHT22;3540;53.242;10.408;2023-01-19T04:24:52;1.20;99.90
7000;DHT22;3540;53.242;10.408;2023-01-19T04:27:17;1.20;99.90
7000;DHT22;3540;53.242;10.408;2023-01-19T04:29:43;1.20;99.90
7000;DHT22;3540;53.242;10.408;2023-01-19T04:32:09;1.20;99.90
7000;DHT22;3540;53.242;10.408;2023-01-19T04:34:35;1.20;99.90
7000;DHT22;3540;53.242;10.408;2023-01-19T04:37:00;1.30;99.90
7000;DHT22;3540;53.242;10.408;2023-01-19T04:39:26;1.30;99.90
7000;DHT22;3540;53.242;10.408;2023-01-19T04:41:52;1.30;99.90
7000;DHT22;3540;53.242;10.408;2023-01-19T04:44:18;1.20;99.90
7000;DHT22;3540;53.242;10.408;2023-01-19T04:46:44;1.20;99.90
7000;DHT22;3540;53.242;10.408;2023-01-19T04:49:09;1.20;99.90
7000;DHT22;3540;53.242;10.408;2023-01-19T04:51:35;1.20;99.90
7000;DHT22;3540;53.242;10.408;2023-01-19T04:54:01;1.20;99.90
7000;DHT22;3540;53.242;10.408;2023-01-19T04:56:28;1.20;99.90
7000;DHT22;3540;53.242;10.408;2023-01-19T04:58:54;1.20;99.90
7000;DHT22;3540;53.242;10.408;2023-01-19T05:01:19;1.20;99.90
7000;DHT22;3540;53.242;10.408;2023-01-19T05:03:45;1.20;99.90
7000;DHT22;3540;53.242;10.408;2023-01-19T05:06:11;1.30;99.90
7000;DHT22;3540;53.242;10.408;2023-01-19T05:08:37;1.20;99.90
7000;DHT22;3540;53.242;10.408;2023-01-19T05:11:02;1.30;99.90
7000;DHT22;3540;53.242;10.408;2023-01-19T05:13:28;1.30;99.90
7000;DHT22;3540;53.242;10.408;2023-01-19T05:15:53;1.30;99.90
7000;DHT22;3540;53.242;10.408;2023-01-19T05:18:19;1.30;99.90
7000;DHT22;3540;53.242;10.408;2023-01-19T05:20:45;1.30;99.90
7000;DHT22;3540;53.242;10.408;2023-01-19T05:23:11;1.30;99.90
7000;DHT22;3540;53.242;10.408;2023-01-19T05:25:36;1.30;99.90
7000;DHT22;3540;53.242;10.408;2023-01-19T05:28:02;1.30;99.90
7000;DHT22;3540;53.242;10.408;2023-01-19T05:30:28;1.30;99.90
7000;DHT22;3540;53.242;10.408;2023-01-19T05:32:54;1.30;99.90
7000;DHT22;3540;53.242;10.408;2023-01-19T05:35:19;1.30;99.90
7000;DHT22;3540;53.242;10.408;2023-01-19T05:37:45;1.30;99.90
7000;DHT22;3540;53.242;10.408;2023-01-19T05:40:11;1.40;99.90
7000;DHT22;3540;53.242;10.408;2023-01-19T05:42:37;1.40;99.90
7000;DHT22;3540;53.242;10.408;2023-01-19T05:45:03;1.40;99.90
7000;DHT22;3540;53.242;10.408;2023-01-19T05:47:29;1.30;99.90
7000;DHT22;3540;53.242;10.408;2023-01-19T05:49:55;1.30;99.90
7000;DHT22;3540;53.242;10.408;2023-01-19T05:52:21;1.30;99.90
7000;DHT22;3540;53.242;10.408;2023-01-19T05:54:46;1.20;99.90
7000;DHT22;3540;53.242;10.408;2023-01-19T05:57:13;1.20;99.90
7000;DHT22;3540;53.242;10.408;2023-01-19T05:59:39;1.10;99.90
7000;DHT22;3540;53.242;10.408;2023-01-19T06:02:05;1.10;99.90
7000;DHT22;3540;53.242;10.408;2023-01-19T06:04:30;1.00;99.90
7000;DHT22;3540;53.242;10.408;2023-01-19T06:06:56;1.10;99.90
7000;DHT22;3540;53.242;10.408;2023-01-19T06:09:22;1.00;99.90
7000;DHT22;3540;53.242;10.408;2023-01-19T06:11:48;1.10;99.90
7000;DHT22;3540;53.242;10.408;2023-01-19T06:14:13;1.00;99.90
7000;DHT22;3540;53.242;10.408;2023-01-19T06:16:39;1.00;99.90
7000;DHT22;3540;53.242;10.408;2023-01-19T06:19:05;1.00;99.90
7000;DHT22;3540;53.242;10.408;2023-01-19T06:21:30;1.00;99.90
7000;DHT22;3540;53.242;10.408;2023-01-19T06:23:57;1.00;99.90
7000;DHT22;3540;53.242;10.408;2023-01-19T06:26:23;1.00;99.90
7000;DHT22;3540;53.242;10.408;2023-01-19T06:28:50;0.90;99.90
7000;DHT22;3540;53.242;10.408;2023-01-19T06:31:16;1.00;99.90
7000;DHT22;3540;53.242;10.408;2023-01-19T06:33:42;0.90;99.90
7000;DHT22;3540;53.242;10.408;2023-01-19T06:36:07;0.90;99.90
7000;DHT22;3540;53.242;10.408;2023-01-19T06:38:33;0.90;99.90
7000;DHT22;3540;53.242;10.408;2023-01-19T06:40:59;0.90;99.90
7000;DHT22;3540;53.242;10.408;2023-01-19T06:43:27;0.90;99.90
7000;DHT22;3540;53.242;10.408;2023-01-19T06:45:53;0.90;99.90
7000;DHT22;3540;53.242;10.408;2023-01-19T06:48:19;0.90;99.90
7000;DHT22;3540;53.242;10.408;2023-01-19T06:50:46;0.90;99.90
7000;DHT22;3540;53.242;10.408;2023-01-19T06:53:13;0.90;99.90
7000;DHT22;3540;53.242;10.408;2023-01-19T06:55:44;0.90;99.90
7000;DHT22;3540;53.242;10.408;2023-01-19T06:58:10;0.90;99.90
7000;DHT22;3540;53.242;10.408;2023-01-19T07:00:36;0.90;99.90
7000;DHT22;3540;53.242;10.408;2023-01-19T07:03:05;0.90;99.90
7000;DHT22;3540;53.242;10.408;2023-01-19T07:05:31;0.90;99.90
7000;DHT22;3540;53.242;10.408;2023-01-19T07:07:56;0.90;99.90
7000;DHT22;3540;53.242;10.408;2023-01-19T07:10:23;0.90;99.90
7000;DHT22;3540;53.242;10.408;2023-01-19T07:12:48;1.00;99.90
7000;DHT22;3540;53.242;10.408;2023-01-19T07:15:16;1.00;99.90
7000;DHT22;3540;53.242;10.408;2023-01-19T07:17:44;1.00;99.90
7000;DHT22;3540;53.242;10.408;2023-01-19T07:20:11;1.00;99.90
7000;DHT22;3540;53.242;10.408;2023-01-19T07:22:40;1.00;99.90
7000;DHT22;3540;53.242;10.408;2023-01-19T07:25:08;1.10;99.90
7000;DHT22;3540;53.242;10.408;2023-01-19T07:27:34;1.10;99.90
7000;DHT22;3540;53.242;10.408;2023-01-19T07:29:59;1.00;99.90
7000;DHT22;3540;53.242;10.408;2023-01-19T07:32:26;1.10;99.90
7000;DHT22;3540;53.242;10.408;2023-01-19T07:34:52;1.10;99.90
7000;DHT22;3540;53.242;10.408;2023-01-19T07:37:18;1.10;99.90
7000;DHT22;3540;53.242;10.408;2023-01-19T07:39:43;1.10;99.90
7000;DHT22;3540;53.242;10.408;2023-01-19T07:42:09;1.10;99.90
7000;DHT22;3540;53.242;10.408;2023-01-19T07:44:35;1.20;99.90
7000;DHT22;3540;53.242;10.408;2023-01-19T07:47:01;1.10;99.90
7000;DHT22;3540;53.242;10.408;2023-01-19T07:49:27;1.20;99.90
7000;DHT22;3540;53.242;10.408;2023-01-19T07:51:53;1.10;99.90
7000;DHT22;3540;53.242;10.408;2023-01-19T07:54:20;1.20;99.90
7000;DHT22;3540;53.242;10.408;2023-01-19T07:56:46;1.20;99.90
7000;DHT22;3540;53.242;10.408;2023-01-19T07:59:12;1.20;99.90
7000;DHT22;3540;53.242;10.408;2023-01-19T08:01:37;1.20;99.90
7000;DHT22;3540;53.242;10.408;2023-01-19T08:04:03;1.20;99.90
7000;DHT22;3540;53.242;10.408;2023-01-19T08:06:32;1.20;99.90
7000;DHT22;3540;53.242;10.408;2023-01-19T08:08:58;1.30;99.90
7000;DHT22;3540;53.242;10.408;2023-01-19T08:11:24;1.30;99.90
7000;DHT22;3540;53.242;10.408;2023-01-19T08:13:50;1.30;99.90
7000;DHT22;3540;53.242;10.408;2023-01-19T08:16:15;1.30;99.90
7000;DHT22;3540;53.242;10.408;2023-01-19T08:18:41;1.30;99.90
7000;DHT22;3540;53.242;10.408;2023-01-19T08:21:07;1.30;99.90
7000;DHT22;3540;53.242;10.408;2023-01-19T08:23:33;1.30;99.90
7000;DHT22;3540;53.242;10.408;2023-01-19T08:25:59;1.40;99.90
7000;DHT22;3540;53.242;10.408;2023-01-19T08:28:24;1.40;99.90
7000;DHT22;3540;53.242;10.408;2023-01-19T08:30:50;1.40;99.90
7000;DHT22;3540;53.242;10.408;2023-01-19T08:33:20;1.40;99.90
7000;DHT22;3540;53.242;10.408;2023-01-19T08:35:49;1.40;99.90
7000;DHT22;3540;53.242;10.408;2023-01-19T08:38:15;1.40;99.90
7000;DHT22;3540;53.242;10.408;2023-01-19T08:40:41;1.40;99.90
7000;DHT22;3540;53.242;10.408;2023-01-19T08:43:13;1.40;99.90
7000;DHT22;3540;53.242;10.408;2023-01-19T08:45:41;1.40;99.90
7000;DHT22;3540;53.242;10.408;2023-01-19T08:48:11;1.40;99.90
7000;DHT22;3540;53.242;10.408;2023-01-19T08:50:38;1.40;99.90
7000;DHT22;3540;53.242;10.408;2023-01-19T08:53:03;1.50;99.90
7000;DHT22;3540;53.242;10.408;2023-01-19T08:55:33;1.40;99.90
7000;DHT22;3540;53.242;10.408;2023-01-19T08:57:59;1.50;99.90
7000;DHT22;3540;53.242;10.408;2023-01-19T09:00:26;1.50;99.90
7000;DHT22;3540;53.242;10.408;2023-01-19T09:02:53;1.60;99.90
7000;DHT22;3540;53.242;10.408;2023-01-19T09:05:18;1.60;99.90
7000;DHT22;3540;53.242;10.408;2023-01-19T09:07:45;1.60;99.90
7000;DHT22;3540;53.242;10.408;2023-01-19T09:10:13;1.60;99.90
7000;DHT22;3540;53.242;10.408;2023-01-19T09:12:39;1.70;99.90
7000;DHT22;3540;53.242;10.408;2023-01-19T09:15:06;1.70;99.90
7000;DHT22;3540;53.242;10.408;2023-01-19T09:17:31;1.80;99.90
7000;DHT22;3540;53.242;10.408;2023-01-19T09:19:57;1.80;99.90
7000;DHT22;3540;53.242;10.408;2023-01-19T09:22:23;1.80;99.90
7000;DHT22;3540;53.242;10.408;2023-01-19T09:24:49;1.90;99.90
7000;DHT22;3540;53.242;10.408;2023-01-19T09:27:14;1.90;99.90
7000;DHT22;3540;53.242;10.408;2023-01-19T09:29:40;2.00;99.90
7000;DHT22;3540;53.242;10.408;2023-01-19T09:32:06;2.00;99.90
7000;DHT22;3540;53.242;10.408;2023-01-19T09:34:31;2.20;99.90
7000;DHT22;3540;53.242;10.408;2023-01-19T09:36:57;2.20;99.90
7000;DHT22;3540;53.242;10.408;2023-01-19T09:39:23;2.30;99.90
7000;DHT22;3540;53.242;10.408;2023-01-19T09:41:59;2.30;99.90
7000;DHT22;3540;53.242;10.408;2023-01-19T09:44:32;2.50;99.90
7000;DHT22;3540;53.242;10.408;2023-01-19T09:47:11;2.50;99.90
7000;DHT22;3540;53.242;10.408;2023-01-19T09:49:40;2.60;99.90
7000;DHT22;3540;53.242;10.408;2023-01-19T09:52:11;2.60;99.90
7000;DHT22;3540;53.242;10.408;2023-01-19T09:54:48;2.70;99.90
7000;DHT22;3540;53.242;10.408;2023-01-19T09:57:17;2.90;99.90
7000;DHT22;3540;53.242;10.408;2023-01-19T09:59:42;3.10;99.90
7000;DHT22;3540;53.242;10.408;2023-01-19T10:10:52;3.00;99.90
7000;DHT22;3540;53.242;10.408;2023-01-19T10:18:49;3.00;99.90
7000;DHT22;3540;53.242;10.408;2023-01-19T10:26:17;3.00;99.90
7000;DHT22;3540;53.242;10.408;2023-01-19T10:28:47;3.10;99.90
7000;DHT22;3540;53.242;10.408;2023-01-19T10:31:16;3.10;99.90
7000;DHT22;3540;53.242;10.408;2023-01-19T10:33:42;3.10;99.90
7000;DHT22;3540;53.242;10.408;2023-01-19T10:36:20;3.10;99.90
7000;DHT22;3540;53.242;10.408;2023-01-19T10:38:49;3.10;99.90
7000;DHT22;3540;53.242;10.408;2023-01-19T10:41:24;3.20;99.90
7000;DHT22;3540;53.242;10.408;2023-01-19T10:43:59;3.20;99.90
7000;DHT22;3540;53.242;10.408;2023-01-19T10:46:43;3.10;99.90
7000;DHT22;3540;53.242;10.408;2023-01-19T10:49:26;3.00;99.90
7000;DHT22;3540;53.242;10.408;2023-01-19T10:51:53;3.10;99.90
7000;DHT22;3540;53.242;10.408;2023-01-19T10:54:20;3.10;99.90
7000;DHT22;3540;53.242;10.408;2023-01-19T10:57:07;3.00;99.90
7000;DHT22;3540;53.242;10.408;2023-01-19T10:59:47;2.90;99.90
7000;DHT22;3540;53.242;10.408;2023-01-19T11:04:44;2.90;99.90
7000;DHT22;3540;53.242;10.408;2023-01-19T11:09:46;2.90;99.90
7000;DHT22;3540;53.242;10.408;2023-01-19T11:12:30;2.90;99.90
7000;DHT22;3540;53.242;10.408;2023-01-19T11:14:56;2.90;99.90
7000;DHT22;3540;53.242;10.408;2023-01-19T11:17:23;3.00;99.90
7000;DHT22;3540;53.242;10.408;2023-01-19T11:20:00;3.10;99.90
7000;DHT22;3540;53.242;10.408;2023-01-19T11:22:31;3.10;99.90
7000;DHT22;3540;53.242;10.408;2023-01-19T11:24:59;3.00;99.90
7000;DHT22;3540;53.242;10.408;2023-01-19T11:27:26;3.00;99.90
7000;DHT22;3540;53.242;10.408;2023-01-19T11:30:16;2.90;99.90
7000;DHT22;3540;53.242;10.408;2023-01-19T11:32:43;2.80;99.90
7000;DHT22;3540;53.242;10.408;2023-01-19T11:35:37;2.80;99.90
7000;DHT22;3540;53.242;10.408;2023-01-19T11:38:17;2.90;99.90
7000;DHT22;3540;53.242;10.408;2023-01-19T11:40:55;2.80;99.90
7000;DHT22;3540;53.242;10.408;2023-01-19T11:43:25;2.80;99.90
7000;DHT22;3540;53.242;10.408;2023-01-19T11:45:53;2.90;99.90
7000;DHT22;3540;53.242;10.408;2023-01-19T11:48:42;3.10;99.90
7000;DHT22;3540;53.242;10.408;2023-01-19T11:51:13;3.20;99.90
7000;DHT22;3540;53.242;10.408;2023-01-19T11:53:43;3.20;99.90
7000;DHT22;3540;53.242;10.408;2023-01-19T11:56:14;3.30;99.90
7000;DHT22;3540;53.242;10.408;2023-01-19T11:58:43;3.30;99.90
7000;DHT22;3540;53.242;10.408;2023-01-19T12:03:50;3.00;99.90
7000;DHT22;3540;53.242;10.408;2023-01-19T12:09:02;2.90;99.90
7000;DHT22;3540;53.242;10.408;2023-01-19T12:11:52;2.90;99.90
7000;DHT22;3540;53.242;10.408;2023-01-19T12:16:50;2.80;99.90
7000;DHT22;3540;53.242;10.408;2023-01-19T12:19:21;2.90;99.90
7000;DHT22;3540;53.242;10.408;2023-01-19T12:21:49;2.90;99.90
7000;DHT22;3540;53.242;10.408;2023-01-19T12:24:33;2.90;99.90
7000;DHT22;3540;53.242;10.408;2023-01-19T12:27:05;3.00;99.90
7000;DHT22;3540;53.242;10.408;2023-01-19T12:29:34;3.00;99.90
7000;DHT22;3540;53.242;10.408;2023-01-19T12:32:33;3.00;99.90
7000;DHT22;3540;53.242;10.408;2023-01-19T12:34:59;3.00;99.90
7000;DHT22;3540;53.242;10.408;2023-01-19T12:37:40;2.90;99.90
7000;DHT22;3540;53.242;10.408;2023-01-19T12:40:27;3.00;99.90
7000;DHT22;3540;53.242;10.408;2023-01-19T12:43:13;2.90;99.90
7000;DHT22;3540;53.242;10.408;2023-01-19T12:45:40;3.00;99.90
7000;DHT22;3540;53.242;10.408;2023-01-19T12:48:23;3.00;99.90
7000;DHT22;3540;53.242;10.408;2023-01-19T12:50:52;3.10;99.90
7000;DHT22;3540;53.242;10.408;2023-01-19T12:53:19;3.00;99.90
7000;DHT22;3540;53.242;10.408;2023-01-19T12:55:57;3.10;99.90
7000;DHT22;3540;53.242;10.408;2023-01-19T12:58:24;3.10;99.90
7000;DHT22;3540;53.242;10.408;2023-01-19T13:01:11;3.10;99.90
7000;DHT22;3540;53.242;10.408;2023-01-19T13:04:03;3.00;99.90
7000;DHT22;3540;53.242;10.408;2023-01-19T13:09:28;3.10;99.90
7000;DHT22;3540;53.242;10.408;2023-01-19T13:14:38;3.40;99.90
7000;DHT22;3540;53.242;10.408;2023-01-19T13:17:25;3.50;99.90
7000;DHT22;3540;53.242;10.408;2023-01-19T13:20:03;3.30;99.90
7000;DHT22;3540;53.242;10.408;2023-01-19T13:25:26;3.30;99.90
7000;DHT22;3540;53.242;10.408;2023-01-19T13:27:53;3.30;99.90
7000;DHT22;3540;53.242;10.408;2023-01-19T13:30:21;3.20;99.90
7000;DHT22;3540;53.242;10.408;2023-01-19T13:32:48;3.10;99.90
7000;DHT22;3540;53.242;10.408;2023-01-19T13:35:17;3.20;99.90
7000;DHT22;3540;53.242;10.408;2023-01-19T13:37:43;3.10;99.90
7000;DHT22;3540;53.242;10.408;2023-01-19T13:40:24;3.10;99.90
7000;DHT22;3540;53.242;10.408;2023-01-19T13:42:53;3.10;99.90
7000;DHT22;3540;53.242;10.408;2023-01-19T13:47:52;3.10;99.90
7000;DHT22;3540;53.242;10.408;2023-01-19T13:50:30;3.00;99.90
7000;DHT22;3540;53.242;10.408;2023-01-19T13:52:56;3.10;99.90
7000;DHT22;3540;53.242;10.408;2023-01-19T13:55:28;3.10;99.90
7000;DHT22;3540;53.242;10.408;2023-01-19T13:57:54;3.00;99.90
7000;DHT22;3540;53.242;10.408;2023-01-19T14:00:28;3.00;99.90
7000;DHT22;3540;53.242;10.408;2023-01-19T14:03:14;3.10;99.90
7000;DHT22;3540;53.242;10.408;2023-01-19T14:05:43;3.10;99.90
7000;DHT22;3540;53.242;10.408;2023-01-19T14:15:39;3.00;99.90
7000;DHT22;3540;53.242;10.408;2023-01-19T14:20:33;3.10;99.90
7000;DHT22;3540;53.242;10.408;2023-01-19T14:23:01;3.00;99.90
7000;DHT22;3540;53.242;10.408;2023-01-19T14:25:30;3.00;99.90
7000;DHT22;3540;53.242;10.408;2023-01-19T14:28:27;3.00;99.90
7000;DHT22;3540;53.242;10.408;2023-01-19T14:33:43;2.90;99.90
7000;DHT22;3540;53.242;10.408;2023-01-19T14:38:51;3.00;99.90
7000;DHT22;3540;53.242;10.408;2023-01-19T14:43:48;3.00;99.90
7000;DHT22;3540;53.242;10.408;2023-01-19T14:46:17;3.00;99.90
7000;DHT22;3540;53.242;10.408;2023-01-19T14:48:47;3.00;99.90
7000;DHT22;3540;53.242;10.408;2023-01-19T14:51:18;3.00;99.90
7000;DHT22;3540;53.242;10.408;2023-01-19T14:53:47;2.90;99.90
7000;DHT22;3540;53.242;10.408;2023-01-19T14:56:26;2.90;99.90
7000;DHT22;3540;53.242;10.408;2023-01-19T14:58:53;2.90;99.90
7000;DHT22;3540;53.242;10.408;2023-01-19T15:01:19;2.90;99.90
7000;DHT22;3540;53.242;10.408;2023-01-19T15:03:45;2.90;99.90
7000;DHT22;3540;53.242;10.408;2023-01-19T15:06:16;2.90;99.90
7000;DHT22;3540;53.242;10.408;2023-01-19T15:08:42;2.90;99.90
7000;DHT22;3540;53.242;10.408;2023-01-19T15:11:22;3.00;99.90
7000;DHT22;3540;53.242;10.408;2023-01-19T15:13:48;3.00;99.90
7000;DHT22;3540;53.242;10.408;2023-01-19T15:16:14;3.00;99.90
7000;DHT22;3540;53.242;10.408;2023-01-19T15:18:40;3.00;99.90
7000;DHT22;3540;53.242;10.408;2023-01-19T15:21:15;2.90;99.90
7000;DHT22;3540;53.242;10.408;2023-01-19T15:23:44;2.90;99.90
7000;DHT22;3540;53.242;10.408;2023-01-19T15:26:14;2.80;99.90
7000;DHT22;3540;53.242;10.408;2023-01-19T15:28:41;2.80;99.90
7000;DHT22;3540;53.242;10.408;2023-01-19T15:31:28;2.70;99.90
7000;DHT22;3540;53.242;10.408;2023-01-19T15:33:54;2.70;99.90
7000;DHT22;3540;53.242;10.408;2023-01-19T15:36:20;2.60;99.90
7000;DHT22;3540;53.242;10.408;2023-01-19T15:38:47;2.60;99.90
7000;DHT22;3540;53.242;10.408;2023-01-19T15:43:48;2.50;99.90
7000;DHT22;3540;53.242;10.408;2023-01-19T15:46:17;2.40;99.90
7000;DHT22;3540;53.242;10.408;2023-01-19T15:48:43;2.40;99.90
7000;DHT22;3540;53.242;10.408;2023-01-19T15:51:13;2.40;99.90
7000;DHT22;3540;53.242;10.408;2023-01-19T15:53:40;2.30;99.90
7000;DHT22;3540;53.242;10.408;2023-01-19T15:56:09;2.30;99.90
7000;DHT22;3540;53.242;10.408;2023-01-19T15:58:36;2.20;99.90
7000;DHT22;3540;53.242;10.408;2023-01-19T16:01:01;2.20;99.90
7000;DHT22;3540;53.242;10.408;2023-01-19T16:03:27;2.10;99.90
7000;DHT22;3540;53.242;10.408;2023-01-19T16:05:52;2.10;99.90
7000;DHT22;3540;53.242;10.408;2023-01-19T16:08:18;2.10;99.90
7000;DHT22;3540;53.242;10.408;2023-01-19T16:10:46;2.00;99.90
7000;DHT22;3540;53.242;10.408;2023-01-19T16:13:11;2.00;99.90
7000;DHT22;3540;53.242;10.408;2023-01-19T16:15:38;2.00;99.90
7000;DHT22;3540;53.242;10.408;2023-01-19T16:18:04;2.00;99.90
7000;DHT22;3540;53.242;10.408;2023-01-19T16:20:30;1.90;99.90
7000;DHT22;3540;53.242;10.408;2023-01-19T16:22:56;1.90;99.90
7000;DHT22;3540;53.242;10.408;2023-01-19T16:25:21;1.90;99.90
7000;DHT22;3540;53.242;10.408;2023-01-19T16:27:48;1.90;99.90
7000;DHT22;3540;53.242;10.408;2023-01-19T16:30:15;1.90;99.90
7000;DHT22;3540;53.242;10.408;2023-01-19T16:32:44;1.80;99.90
7000;DHT22;3540;53.242;10.408;2023-01-19T16:35:10;1.80;99.90
7000;DHT22;3540;53.242;10.408;2023-01-19T16:37:36;1.80;99.90
7000;DHT22;3540;53.242;10.408;2023-01-19T16:40:02;1.80;99.90
7000;DHT22;3540;53.242;10.408;2023-01-19T16:42:28;1.70;99.90
7000;DHT22;3540;53.242;10.408;2023-01-19T16:44:54;1.60;99.90
7000;DHT22;3540;53.242;10.408;2023-01-19T16:47:19;1.60;99.90
7000;DHT22;3540;53.242;10.408;2023-01-19T16:49:45;1.60;99.90
7000;DHT22;3540;53.242;10.408;2023-01-19T16:52:14;1.50;99.90
7000;DHT22;3540;53.242;10.408;2023-01-19T16:54:41;1.50;99.90
7000;DHT22;3540;53.242;10.408;2023-01-19T16:57:07;1.50;99.90
7000;DHT22;3540;53.242;10.408;2023-01-19T16:59:33;1.40;99.90
7000;DHT22;3540;53.242;10.408;2023-01-19T17:01:59;1.40;99.90
7000;DHT22;3540;53.242;10.408;2023-01-19T17:04:25;1.30;99.90
7000;DHT22;3540;53.242;10.408;2023-01-19T17:06:52;1.30;99.90
7000;DHT22;3540;53.242;10.408;2023-01-19T17:09:17;1.20;99.90
7000;DHT22;3540;53.242;10.408;2023-01-19T17:11:58;1.20;99.90
7000;DHT22;3540;53.242;10.408;2023-01-19T17:14:24;1.10;99.90
7000;DHT22;3540;53.242;10.408;2023-01-19T17:16:50;1.10;99.90
7000;DHT22;3540;53.242;10.408;2023-01-19T17:19:18;1.10;99.90
7000;DHT22;3540;53.242;10.408;2023-01-19T17:21:44;1.00;99.90
7000;DHT22;3540;53.242;10.408;2023-01-19T17:24:10;1.00;99.90
7000;DHT22;3540;53.242;10.408;2023-01-19T17:26:36;1.00;99.90
7000;DHT22;3540;53.242;10.408;2023-01-19T17:29:05;1.00;99.90
7000;DHT22;3540;53.242;10.408;2023-01-19T17:31:31;0.90;99.90
7000;DHT22;3540;53.242;10.408;2023-01-19T17:33:57;1.00;99.90
7000;DHT22;3540;53.242;10.408;2023-01-19T17:36:25;0.90;99.90
7000;DHT22;3540;53.242;10.408;2023-01-19T17:38:53;0.90;99.90
7000;DHT22;3540;53.242;10.408;2023-01-19T17:41:23;0.90;99.90
7000;DHT22;3540;53.242;10.408;2023-01-19T17:43:49;0.90;99.90
7000;DHT22;3540;53.242;10.408;2023-01-19T17:46:16;0.80;99.90
7000;DHT22;3540;53.242;10.408;2023-01-19T17:48:43;0.80;99.90